首页
METAR-TAF:

METAR-TAF

机场 :

阿什维尔, 北卡罗来纳州, 美国

纬度: 35-25-55N, 经度: 082-32-15W, 海拔: 660米

当前天气观测

该预报发布于19分钟前的12:54 UTC
风速5节,风向北转西北
温度 23°C
湿度 89%
气压 1019 hPa
能見度: 16.1公里
少量云层高于800英尺

METAR: KAVL 171254Z 34005KT 10SM FEW008 23/21 A3010 RMK AO2 SLP164 T02330206

时间: 09:13 (13:13 UTC)

预报

该预报发布于1小时和14分钟前的11:59 UTC
预报有效从17日的 12点(UTC)到 18日的 12点(UTC)
风速6节,风向北转西北
能見度: 10公里
阴天层高于700英尺
从 17日的 1400点(UTC)
风速7节,风向北转西北
能見度: 10公里
散云层高于4000英尺
多云层高于25000英尺
从 17日的 1800点(UTC)
风速8节,风向北转西北
能見度: 10公里
多云层高于5000英尺, 积雨云.
附近有雷暴
几率 30%
从 17日的 21点(UTC)到 18日的 02点(UTC)
能見度: 6.4公里
阴天层高于2500英尺, 积雨云.
雷暴, 小雨
从 18日的 0200点(UTC)
风速6节,风向北转西北
能見度: 10公里
多云层高于6000英尺
从 18日的 0900点(UTC)
风速5节,风向西北
能見度: 9.7公里
散云层高于1100英尺
轻雾

TAF: KAVL 171159Z 1712/1812 34006KT P6SM OVC007 FM171400 34007KT P6SM SCT040 BKN250 FM171800 33008KT P6SM VCTS BKN050CB PROB30 1721/1802 4SM -TSRA OVC025CB FM180200 33006KT P6SM BKN060 FM180900 31005KT 6SM BR SCT011

超过4000个机场的气象观测和天气预报(METAR&TAF报告)。

可查询的气象台以黄色和红色小点在地图上表示。

将鼠标移到小点上方,可查看气象台名称。

然后点击查看天气观测和预报。

如需切换地图:点击带黑十字的绿色按钮放大地图;点击带横线的绿色按钮缩小地图;或者点击绿色箭头查看邻近地区的地图。


METAR-TAF: